sensor_id;sensor_type;location;lat;lon;timestamp;P1;durP1;ratioP1;P2;durP2;ratioP2
5702;SDS011;2876;51.738;10.050;2023-07-31T00:03:44;2.80;;;1.40;;
5702;SDS011;2876;51.738;10.050;2023-07-31T00:09:48;1.80;;;1.30;;
5702;SDS011;2876;51.738;10.050;2023-07-31T00:15:56;1.53;;;1.40;;
5702;SDS011;2876;51.738;10.050;2023-07-31T00:21:58;5.10;;;2.13;;
5702;SDS011;2876;51.738;10.050;2023-07-31T00:28:00;4.03;;;1.90;;
5702;SDS011;2876;51.738;10.050;2023-07-31T00:34:02;5.20;;;1.90;;
5702;SDS011;2876;51.738;10.050;2023-07-31T00:40:04;4.40;;;2.13;;
5702;SDS011;2876;51.738;10.050;2023-07-31T00:46:07;2.97;;;1.73;;
5702;SDS011;2876;51.738;10.050;2023-07-31T00:52:12;3.73;;;1.97;;
5702;SDS011;2876;51.738;10.050;2023-07-31T00:58:16;5.87;;;2.23;;
5702;SDS011;2876;51.738;10.050;2023-07-31T01:04:18;5.20;;;2.40;;
5702;SDS011;2876;51.738;10.050;2023-07-31T01:10:21;3.00;;;1.80;;
5702;SDS011;2876;51.738;10.050;2023-07-31T01:16:32;2.57;;;1.97;;
5702;SDS011;2876;51.738;10.050;2023-07-31T01:22:53;4.10;;;1.77;;
5702;SDS011;2876;51.738;10.050;2023-07-31T01:30:02;4.83;;;2.33;;
5702;SDS011;2876;51.738;10.050;2023-07-31T01:36:05;4.40;;;2.20;;
5702;SDS011;2876;51.738;10.050;2023-07-31T01:42:07;3.40;;;2.10;;
5702;SDS011;2876;51.738;10.050;2023-07-31T01:48:12;1.97;;;1.77;;
5702;SDS011;2876;51.738;10.050;2023-07-31T01:54:14;3.87;;;2.10;;
5702;SDS011;2876;51.738;10.050;2023-07-31T02:00:16;3.63;;;2.20;;
5702;SDS011;2876;51.738;10.050;2023-07-31T02:06:18;3.07;;;1.70;;
5702;SDS011;2876;51.738;10.050;2023-07-31T02:12:20;6.53;;;2.53;;
5702;SDS011;2876;51.738;10.050;2023-07-31T02:18:22;7.53;;;1.97;;
5702;SDS011;2876;51.738;10.050;2023-07-31T02:24:24;2.83;;;2.07;;
5702;SDS011;2876;51.738;10.050;2023-07-31T02:30:26;3.53;;;2.27;;
5702;SDS011;2876;51.738;10.050;2023-07-31T02:36:28;7.80;;;2.90;;
5702;SDS011;2876;51.738;10.050;2023-07-31T02:42:30;3.40;;;2.17;;
5702;SDS011;2876;51.738;10.050;2023-07-31T02:48:32;5.27;;;2.17;;
5702;SDS011;2876;51.738;10.050;2023-07-31T02:54:34;3.07;;;2.30;;
5702;SDS011;2876;51.738;10.050;2023-07-31T03:00:41;4.80;;;2.60;;
5702;SDS011;2876;51.738;10.050;2023-07-31T03:06:46;9.17;;;2.53;;
5702;SDS011;2876;51.738;10.050;2023-07-31T03:12:48;2.53;;;1.90;;
5702;SDS011;2876;51.738;10.050;2023-07-31T03:18:50;2.47;;;1.77;;
5702;SDS011;2876;51.738;10.050;2023-07-31T03:24:55;4.73;;;2.37;;
5702;SDS011;2876;51.738;10.050;2023-07-31T03:30:57;2.50;;;2.20;;
5702;SDS011;2876;51.738;10.050;2023-07-31T03:37:00;2.13;;;1.97;;
5702;SDS011;2876;51.738;10.050;2023-07-31T03:43:02;3.47;;;2.00;;
5702;SDS011;2876;51.738;10.050;2023-07-31T03:49:04;2.10;;;1.97;;
5702;SDS011;2876;51.738;10.050;2023-07-31T03:55:06;3.37;;;2.03;;
5702;SDS011;2876;51.738;10.050;2023-07-31T04:01:08;3.13;;;2.40;;
5702;SDS011;2876;51.738;10.050;2023-07-31T04:07:11;7.43;;;2.20;;
5702;SDS011;2876;51.738;10.050;2023-07-31T04:13:13;3.03;;;2.33;;
5702;SDS011;2876;51.738;10.050;2023-07-31T04:19:15;8.67;;;3.53;;
5702;SDS011;2876;51.738;10.050;2023-07-31T04:25:18;5.77;;;3.40;;
5702;SDS011;2876;51.738;10.050;2023-07-31T04:31:20;2.97;;;2.43;;
5702;SDS011;2876;51.738;10.050;2023-07-31T04:37:22;3.73;;;2.73;;
5702;SDS011;2876;51.738;10.050;2023-07-31T04:43:24;8.20;;;2.90;;
5702;SDS011;2876;51.738;10.050;2023-07-31T04:49:26;3.30;;;3.00;;
5702;SDS011;2876;51.738;10.050;2023-07-31T04:55:28;5.03;;;3.10;;
5702;SDS011;2876;51.738;10.050;2023-07-31T05:01:30;5.10;;;3.43;;
5702;SDS011;2876;51.738;10.050;2023-07-31T05:07:32;6.87;;;3.30;;
5702;SDS011;2876;51.738;10.050;2023-07-31T05:13:34;4.33;;;2.90;;
5702;SDS011;2876;51.738;10.050;2023-07-31T05:19:36;5.57;;;3.10;;
5702;SDS011;2876;51.738;10.050;2023-07-31T05:25:38;5.17;;;2.80;;
5702;SDS011;2876;51.738;10.050;2023-07-31T05:31:40;4.07;;;2.53;;
5702;SDS011;2876;51.738;10.050;2023-07-31T05:37:42;5.10;;;3.10;;
5702;SDS011;2876;51.738;10.050;2023-07-31T05:43:44;4.90;;;2.83;;
5702;SDS011;2876;51.738;10.050;2023-07-31T05:49:48;7.07;;;2.53;;
5702;SDS011;2876;51.738;10.050;2023-07-31T05:55:50;8.73;;;2.50;;
5702;SDS011;2876;51.738;10.050;2023-07-31T06:01:52;3.30;;;2.87;;
5702;SDS011;2876;51.738;10.050;2023-07-31T06:07:54;8.93;;;3.40;;
5702;SDS011;2876;51.738;10.050;2023-07-31T06:13:57;12.77;;;2.90;;
5702;SDS011;2876;51.738;10.050;2023-07-31T06:19:59;4.90;;;3.07;;
5702;SDS011;2876;51.738;10.050;2023-07-31T06:26:01;4.73;;;2.90;;
5702;SDS011;2876;51.738;10.050;2023-07-31T06:32:03;5.77;;;3.57;;
5702;SDS011;2876;51.738;10.050;2023-07-31T06:38:05;5.33;;;3.00;;
5702;SDS011;2876;51.738;10.050;2023-07-31T06:44:07;4.30;;;3.03;;
5702;SDS011;2876;51.738;10.050;2023-07-31T06:50:09;3.93;;;2.40;;
5702;SDS011;2876;51.738;10.050;2023-07-31T06:56:11;6.27;;;3.37;;
5702;SDS011;2876;51.738;10.050;2023-07-31T07:02:13;8.30;;;3.77;;
5702;SDS011;2876;51.738;10.050;2023-07-31T07:08:15;6.40;;;2.67;;
5702;SDS011;2876;51.738;10.050;2023-07-31T07:14:18;4.70;;;2.93;;
5702;SDS011;2876;51.738;10.050;2023-07-31T07:20:20;5.40;;;3.00;;
5702;SDS011;2876;51.738;10.050;2023-07-31T07:26:22;5.23;;;3.00;;
5702;SDS011;2876;51.738;10.050;2023-07-31T07:32:24;7.13;;;3.50;;
5702;SDS011;2876;51.738;10.050;2023-07-31T07:38:27;8.73;;;3.67;;
5702;SDS011;2876;51.738;10.050;2023-07-31T07:44:29;7.60;;;2.90;;
5702;SDS011;2876;51.738;10.050;2023-07-31T07:50:31;7.93;;;3.23;;
5702;SDS011;2876;51.738;10.050;2023-07-31T07:56:34;4.70;;;2.83;;
5702;SDS011;2876;51.738;10.050;2023-07-31T08:02:38;11.50;;;3.60;;
5702;SDS011;2876;51.738;10.050;2023-07-31T08:08:40;8.50;;;3.27;;
5702;SDS011;2876;51.738;10.050;2023-07-31T08:14:42;3.47;;;2.47;;
5702;SDS011;2876;51.738;10.050;2023-07-31T08:20:44;3.63;;;2.70;;
5702;SDS011;2876;51.738;10.050;2023-07-31T08:26:46;3.70;;;2.37;;
5702;SDS011;2876;51.738;10.050;2023-07-31T08:32:49;5.53;;;2.80;;
5702;SDS011;2876;51.738;10.050;2023-07-31T08:38:51;3.40;;;3.03;;
5702;SDS011;2876;51.738;10.050;2023-07-31T08:44:53;6.70;;;2.63;;
5702;SDS011;2876;51.738;10.050;2023-07-31T08:50:57;5.10;;;2.60;;
5702;SDS011;2876;51.738;10.050;2023-07-31T08:56:59;3.63;;;2.33;;
5702;SDS011;2876;51.738;10.050;2023-07-31T09:03:03;3.80;;;2.60;;
5702;SDS011;2876;51.738;10.050;2023-07-31T09:09:14;5.57;;;3.07;;
5702;SDS011;2876;51.738;10.050;2023-07-31T09:15:16;4.00;;;3.07;;
5702;SDS011;2876;51.738;10.050;2023-07-31T09:21:42;4.00;;;2.87;;
5702;SDS011;2876;51.738;10.050;2023-07-31T09:28:10;4.33;;;3.27;;
5702;SDS011;2876;51.738;10.050;2023-07-31T09:34:12;5.60;;;3.60;;
5702;SDS011;2876;51.738;10.050;2023-07-31T09:40:26;4.23;;;3.23;;
5702;SDS011;2876;51.738;10.050;2023-07-31T09:46:30;5.70;;;3.50;;
5702;SDS011;2876;51.738;10.050;2023-07-31T09:52:32;4.07;;;3.23;;
5702;SDS011;2876;51.738;10.050;2023-07-31T09:58:34;4.40;;;3.13;;
5702;SDS011;2876;51.738;10.050;2023-07-31T10:04:37;10.67;;;3.00;;
5702;SDS011;2876;51.738;10.050;2023-07-31T10:10:43;5.80;;;3.63;;
5702;SDS011;2876;51.738;10.050;2023-07-31T10:16:46;7.00;;;2.80;;
5702;SDS011;2876;51.738;10.050;2023-07-31T10:22:49;5.17;;;2.93;;
5702;SDS011;2876;51.738;10.050;2023-07-31T10:28:52;3.20;;;2.70;;
5702;SDS011;2876;51.738;10.050;2023-07-31T10:34:55;7.10;;;3.20;;
5702;SDS011;2876;51.738;10.050;2023-07-31T10:41:07;8.77;;;3.73;;
5702;SDS011;2876;51.738;10.050;2023-07-31T10:47:14;3.50;;;2.60;;
5702;SDS011;2876;51.738;10.050;2023-07-31T10:53:24;5.77;;;2.73;;
5702;SDS011;2876;51.738;10.050;2023-07-31T10:59:34;3.47;;;2.43;;
5702;SDS011;2876;51.738;10.050;2023-07-31T11:11:59;5.77;;;2.43;;
5702;SDS011;2876;51.738;10.050;2023-07-31T11:18:02;6.30;;;2.43;;
5702;SDS011;2876;51.738;10.050;2023-07-31T11:24:05;3.40;;;2.37;;
5702;SDS011;2876;51.738;10.050;2023-07-31T11:30:07;5.70;;;3.37;;
5702;SDS011;2876;51.738;10.050;2023-07-31T11:36:19;4.53;;;2.93;;
5702;SDS011;2876;51.738;10.050;2023-07-31T11:42:22;5.77;;;3.00;;
5702;SDS011;2876;51.738;10.050;2023-07-31T11:54:31;4.20;;;2.80;;
5702;SDS011;2876;51.738;10.050;2023-07-31T12:00:33;5.20;;;2.70;;
5702;SDS011;2876;51.738;10.050;2023-07-31T12:06:35;5.03;;;3.40;;
5702;SDS011;2876;51.738;10.050;2023-07-31T12:12:39;6.10;;;2.93;;
5702;SDS011;2876;51.738;10.050;2023-07-31T12:18:40;4.27;;;2.67;;
5702;SDS011;2876;51.738;10.050;2023-07-31T12:24:43;4.93;;;2.70;;
5702;SDS011;2876;51.738;10.050;2023-07-31T12:30:45;5.13;;;2.73;;
5702;SDS011;2876;51.738;10.050;2023-07-31T12:36:47;5.00;;;2.23;;
5702;SDS011;2876;51.738;10.050;2023-07-31T12:42:52;4.23;;;2.40;;
5702;SDS011;2876;51.738;10.050;2023-07-31T12:48:55;3.97;;;2.43;;
5702;SDS011;2876;51.738;10.050;2023-07-31T12:54:56;4.00;;;2.20;;
5702;SDS011;2876;51.738;10.050;2023-07-31T13:00:59;4.97;;;3.00;;
5702;SDS011;2876;51.738;10.050;2023-07-31T13:07:01;7.10;;;3.53;;
5702;SDS011;2876;51.738;10.050;2023-07-31T13:13:02;6.20;;;3.13;;
5702;SDS011;2876;51.738;10.050;2023-07-31T13:19:04;6.73;;;3.40;;
5702;SDS011;2876;51.738;10.050;2023-07-31T13:25:07;5.37;;;2.83;;
5702;SDS011;2876;51.738;10.050;2023-07-31T13:31:09;7.10;;;2.50;;
5702;SDS011;2876;51.738;10.050;2023-07-31T13:37:12;8.07;;;2.87;;
5702;SDS011;2876;51.738;10.050;2023-07-31T13:43:14;3.17;;;2.60;;
5702;SDS011;2876;51.738;10.050;2023-07-31T13:49:16;3.57;;;3.07;;
5702;SDS011;2876;51.738;10.050;2023-07-31T13:55:18;4.53;;;2.70;;
5702;SDS011;2876;51.738;10.050;2023-07-31T14:01:20;4.10;;;3.17;;
5702;SDS011;2876;51.738;10.050;2023-07-31T14:07:22;5.10;;;2.80;;
5702;SDS011;2876;51.738;10.050;2023-07-31T14:13:24;4.80;;;2.90;;
5702;SDS011;2876;51.738;10.050;2023-07-31T14:19:26;6.63;;;3.47;;
5702;SDS011;2876;51.738;10.050;2023-07-31T14:25:28;5.20;;;3.10;;
5702;SDS011;2876;51.738;10.050;2023-07-31T14:31:30;3.30;;;2.43;;
5702;SDS011;2876;51.738;10.050;2023-07-31T14:43:42;4.43;;;2.97;;
5702;SDS011;2876;51.738;10.050;2023-07-31T14:49:44;3.93;;;2.73;;
5702;SDS011;2876;51.738;10.050;2023-07-31T14:55:46;3.33;;;2.50;;
5702;SDS011;2876;51.738;10.050;2023-07-31T15:01:48;4.20;;;3.30;;
5702;SDS011;2876;51.738;10.050;2023-07-31T15:07:50;4.40;;;2.60;;
5702;SDS011;2876;51.738;10.050;2023-07-31T15:13:53;3.30;;;2.60;;
5702;SDS011;2876;51.738;10.050;2023-07-31T15:19:55;7.07;;;2.90;;
5702;SDS011;2876;51.738;10.050;2023-07-31T15:25:57;4.33;;;2.53;;
5702;SDS011;2876;51.738;10.050;2023-07-31T15:31:59;3.30;;;2.10;;
5702;SDS011;2876;51.738;10.050;2023-07-31T15:38:01;4.23;;;2.80;;
5702;SDS011;2876;51.738;10.050;2023-07-31T15:44:04;3.83;;;2.40;;
5702;SDS011;2876;51.738;10.050;2023-07-31T15:50:06;5.00;;;2.70;;
5702;SDS011;2876;51.738;10.050;2023-07-31T15:56:09;3.17;;;2.50;;
5702;SDS011;2876;51.738;10.050;2023-07-31T16:02:11;2.23;;;1.83;;
5702;SDS011;2876;51.738;10.050;2023-07-31T16:08:13;7.33;;;2.37;;
5702;SDS011;2876;51.738;10.050;2023-07-31T16:14:15;9.70;;;2.80;;
5702;SDS011;2876;51.738;10.050;2023-07-31T16:20:17;3.40;;;2.23;;
5702;SDS011;2876;51.738;10.050;2023-07-31T16:26:19;6.73;;;2.63;;
5702;SDS011;2876;51.738;10.050;2023-07-31T16:32:21;5.37;;;2.57;;
5702;SDS011;2876;51.738;10.050;2023-07-31T16:38:23;3.47;;;2.13;;
5702;SDS011;2876;51.738;10.050;2023-07-31T16:44:25;7.40;;;2.63;;
5702;SDS011;2876;51.738;10.050;2023-07-31T16:50:27;3.07;;;2.00;;
5702;SDS011;2876;51.738;10.050;2023-07-31T16:56:29;3.87;;;2.63;;
5702;SDS011;2876;51.738;10.050;2023-07-31T17:02:45;3.27;;;2.30;;
5702;SDS011;2876;51.738;10.050;2023-07-31T22:34:43;3.03;;;2.50;;
5702;SDS011;2876;51.738;10.050;2023-07-31T23:21:27;3.20;;;2.70;;
5702;SDS011;2876;51.738;10.050;2023-07-31T23:27:29;4.33;;;2.20;;
5702;SDS011;2876;51.738;10.050;2023-07-31T23:33:32;4.13;;;2.37;;
5702;SDS011;2876;51.738;10.050;2023-07-31T23:39:34;2.63;;;2.27;;
5702;SDS011;2876;51.738;10.050;2023-07-31T23:45:36;2.63;;;2.43;;
5702;SDS011;2876;51.738;10.050;2023-07-31T23:51:39;3.57;;;2.50;;
5702;SDS011;2876;51.738;10.050;2023-07-31T23:57:42;9.07;;;2.87;;
